createdAt,value
2018-08-11T00:02:01.595Z,2.40
2018-08-11T00:04:30.481Z,1.75
2018-08-11T00:06:59.341Z,2.30
2018-08-11T00:09:28.175Z,1.22
2018-08-11T00:11:56.993Z,1.65
2018-08-11T00:14:25.937Z,2.42
2018-08-11T00:16:54.785Z,1.80
2018-08-11T00:19:23.608Z,2.83
2018-08-11T00:21:52.468Z,1.05
2018-08-11T00:24:21.330Z,1.27
2018-08-11T00:26:50.731Z,2.52
2018-08-11T00:29:19.580Z,1.82
2018-08-11T00:31:48.477Z,2.10
2018-08-11T00:34:17.395Z,1.85
2018-08-11T00:36:46.253Z,2.25
2018-08-11T00:39:15.097Z,2.35
2018-08-11T00:41:43.883Z,1.42
2018-08-11T00:44:12.762Z,1.52
2018-08-11T00:46:41.712Z,2.12
2018-08-11T00:49:10.566Z,2.25
2018-08-11T00:51:39.507Z,1.87
2018-08-11T00:54:08.300Z,4.78
2018-08-11T00:56:37.170Z,1.85
2018-08-11T00:59:05.983Z,1.98
2018-08-11T01:01:34.789Z,1.75
2018-08-11T01:04:03.662Z,2.05
2018-08-11T01:06:32.484Z,2.83
2018-08-11T01:09:01.296Z,1.82
2018-08-11T01:11:30.192Z,2.50
2018-08-11T01:13:59.014Z,3.37
2018-08-11T01:16:27.865Z,0.88
2018-08-11T01:18:56.766Z,1.98
2018-08-11T01:21:25.647Z,2.45
2018-08-11T01:23:54.498Z,2.22
2018-08-11T01:26:23.996Z,0.68
2018-08-11T01:28:52.785Z,2.90
2018-08-11T01:31:21.590Z,1.95
2018-08-11T01:33:50.429Z,2.98
2018-08-11T01:36:19.343Z,1.47
2018-08-11T01:38:48.150Z,1.55
2018-08-11T01:41:17.031Z,1.45
2018-08-11T01:43:45.835Z,2.25
2018-08-11T01:46:14.685Z,2.25
2018-08-11T01:48:43.513Z,3.25
2018-08-11T01:51:12.356Z,1.90
2018-08-11T01:53:41.194Z,1.20
2018-08-11T01:56:10.460Z,2.00
2018-08-11T01:58:39.300Z,1.92
2018-08-11T02:01:08.118Z,2.25
2018-08-11T02:03:37.001Z,1.05
2018-08-11T02:06:05.827Z,1.17
2018-08-11T02:08:34.619Z,2.25
2018-08-11T02:11:03.536Z,5.58
2018-08-11T02:13:32.320Z,3.12
2018-08-11T02:16:01.076Z,2.22
2018-08-11T02:18:29.915Z,1.77
2018-08-11T02:20:58.783Z,0.98
2018-08-11T02:23:27.571Z,2.40
2018-08-11T02:25:56.474Z,1.07
2018-08-11T02:28:25.288Z,1.95
2018-08-11T02:30:54.154Z,2.62
2018-08-11T02:33:22.930Z,2.35
2018-08-11T02:35:51.805Z,3.50
2018-08-11T02:38:20.638Z,2.85
2018-08-11T02:40:49.439Z,1.22
2018-08-11T02:43:18.252Z,2.27
2018-08-11T02:45:47.030Z,1.30
2018-08-11T02:48:15.832Z,1.82
2018-08-11T02:50:44.652Z,1.00
2018-08-11T02:53:13.493Z,1.40
2018-08-11T02:55:42.305Z,1.30
2018-08-11T02:58:11.117Z,1.35
2018-08-11T03:00:39.924Z,1.30
2018-08-11T03:03:08.698Z,1.75
2018-08-11T03:05:37.483Z,0.95
2018-08-11T03:08:06.390Z,2.12
2018-08-11T03:10:35.152Z,1.37
2018-08-11T03:13:04.038Z,2.75
2018-08-11T03:15:32.817Z,4.03
2018-08-11T03:18:01.571Z,1.98
2018-08-11T03:20:30.580Z,2.42
2018-08-11T03:22:59.327Z,2.05
2018-08-11T03:25:28.093Z,0.72
2018-08-11T03:27:56.893Z,2.70
2018-08-11T03:30:25.726Z,1.20
2018-08-11T03:32:54.500Z,1.10
2018-08-11T03:35:23.296Z,1.27
2018-08-11T03:37:52.132Z,1.77
2018-08-11T03:40:20.974Z,2.83
2018-08-11T03:42:49.776Z,3.50
2018-08-11T03:45:18.620Z,1.07
2018-08-11T03:47:47.497Z,1.27
2018-08-11T03:50:16.374Z,1.10
2018-08-11T03:52:45.357Z,1.05
2018-08-11T03:55:14.172Z,2.58
2018-08-11T03:57:42.963Z,0.85
2018-08-11T04:00:12.822Z,1.25
2018-08-11T04:02:41.719Z,2.37
2018-08-11T04:05:10.554Z,1.40
2018-08-11T04:07:39.389Z,1.47
2018-08-11T04:10:08.216Z,2.08
2018-08-11T04:12:37.032Z,1.52
2018-08-11T04:15:06.257Z,1.40
2018-08-11T04:17:38.755Z,1.32
2018-08-11T04:20:09.230Z,2.58
2018-08-11T04:22:38.246Z,2.17
2018-08-11T04:25:08.044Z,3.02
2018-08-11T04:27:37.321Z,1.72
2018-08-11T04:30:07.825Z,2.87
2018-08-11T04:32:36.630Z,2.20
2018-08-11T04:35:05.480Z,2.55
2018-08-11T04:37:34.403Z,1.05
2018-08-11T04:40:03.589Z,1.85
2018-08-11T04:42:32.408Z,1.70
2018-08-11T04:45:01.252Z,1.00
2018-08-11T04:47:29.994Z,1.32
2018-08-11T04:49:58.800Z,2.12
2018-08-11T04:52:27.619Z,1.27
2018-08-11T04:54:56.488Z,1.22
2018-08-11T04:57:25.343Z,1.30
2018-08-11T04:59:54.145Z,1.27
2018-08-11T05:02:23.020Z,2.33
2018-08-11T05:04:51.971Z,1.22
2018-08-11T05:07:20.765Z,1.87
2018-08-11T05:09:49.810Z,1.90
2018-08-11T05:12:18.634Z,1.52
2018-08-11T05:14:47.433Z,2.33
2018-08-11T05:17:16.269Z,4.33
2018-08-11T05:19:45.220Z,2.15
2018-08-11T05:22:14.001Z,0.85
2018-08-11T05:24:42.738Z,0.82
2018-08-11T05:27:11.591Z,2.08
2018-08-11T05:29:40.424Z,1.42
2018-08-11T05:32:09.256Z,1.60
2018-08-11T05:34:38.063Z,1.65
2018-08-11T05:37:07.182Z,1.25
2018-08-11T05:39:36.043Z,2.17
2018-08-11T05:42:05.053Z,1.90
2018-08-11T05:44:33.838Z,4.05
2018-08-11T05:47:02.622Z,2.52
2018-08-11T05:49:31.531Z,1.12
2018-08-11T05:52:00.301Z,2.33
2018-08-11T05:54:29.063Z,1.22
2018-08-11T05:56:57.852Z,2.85
2018-08-11T05:59:27.396Z,2.67
2018-08-11T06:01:56.165Z,2.27
2018-08-11T06:04:24.984Z,1.82
2018-08-11T06:06:53.743Z,2.25
2018-08-11T06:09:22.573Z,1.92
2018-08-11T06:11:51.378Z,1.35
2018-08-11T06:14:20.182Z,2.12
2018-08-11T06:16:49.132Z,1.95
2018-08-11T06:19:17.968Z,3.58
2018-08-11T06:21:46.700Z,2.25
2018-08-11T06:24:15.574Z,3.75
2018-08-11T06:26:44.362Z,2.00
2018-08-11T06:29:13.165Z,5.55
2018-08-11T06:31:41.946Z,2.35
2018-08-11T06:34:10.778Z,2.12
2018-08-11T06:36:39.963Z,2.02
2018-08-11T06:39:11.669Z,1.20
2018-08-11T06:41:40.607Z,1.37
2018-08-11T06:44:09.450Z,2.62
2018-08-11T06:46:38.343Z,3.08
2018-08-11T06:49:07.200Z,2.17
2018-08-11T06:51:36.181Z,1.57
2018-08-11T06:54:05.190Z,1.40
2018-08-11T06:56:34.065Z,1.92
2018-08-11T06:59:02.916Z,2.60
2018-08-11T07:01:31.795Z,1.30
2018-08-11T07:04:00.632Z,1.02
2018-08-11T07:06:29.490Z,1.82
2018-08-11T07:08:58.284Z,1.80
2018-08-11T07:11:27.159Z,1.30
2018-08-11T07:13:56.023Z,1.37
2018-08-11T07:16:24.973Z,1.52
2018-08-11T07:18:54.066Z,1.35
2018-08-11T07:21:22.908Z,1.07
2018-08-11T07:23:51.650Z,1.10
2018-08-11T07:26:20.513Z,1.37
2018-08-11T07:28:49.415Z,1.82
2018-08-11T07:31:18.235Z,1.37
2018-08-11T07:33:47.030Z,1.22
2018-08-11T07:36:15.973Z,0.80
2018-08-11T07:38:44.764Z,1.12
2018-08-11T07:41:13.642Z,2.35
2018-08-11T07:43:42.567Z,1.85
2018-08-11T07:46:11.338Z,1.65
2018-08-11T07:48:40.209Z,1.70
2018-08-11T07:51:09.192Z,1.82
2018-08-11T07:53:38.025Z,1.20
2018-08-11T07:56:06.940Z,3.85
2018-08-11T07:58:35.707Z,1.02
2018-08-11T08:01:04.664Z,2.40
2018-08-11T08:03:33.468Z,2.85
2018-08-11T08:06:02.490Z,2.45
2018-08-11T08:08:31.359Z,2.45
2018-08-11T08:11:00.185Z,1.70
2018-08-11T08:13:28.974Z,1.80
2018-08-11T08:15:57.880Z,2.58
2018-08-11T08:18:26.730Z,2.67
2018-08-11T08:20:55.550Z,1.98
2018-08-11T08:23:24.396Z,2.27
2018-08-11T08:25:53.217Z,1.22
2018-08-11T08:28:22.047Z,2.80
2018-08-11T08:30:51.198Z,4.30
2018-08-11T08:33:20.042Z,1.40
2018-08-11T08:35:48.991Z,4.37
2018-08-11T08:38:17.801Z,3.17
2018-08-11T08:40:46.575Z,2.52
2018-08-11T08:43:15.364Z,4.25
2018-08-11T08:45:44.256Z,4.67
2018-08-11T08:48:13.051Z,4.45
2018-08-11T08:50:41.802Z,1.70
2018-08-11T08:53:10.658Z,3.20
2018-08-11T08:55:39.434Z,2.37
2018-08-11T08:58:08.243Z,2.22
2018-08-11T09:00:37.127Z,3.47
2018-08-11T09:03:06.016Z,2.55
2018-08-11T09:05:34.917Z,2.65
2018-08-11T09:08:03.838Z,2.40
2018-08-11T09:10:32.690Z,1.92
2018-08-11T09:13:01.610Z,3.25
2018-08-11T09:15:30.437Z,2.12
2018-08-11T09:17:59.248Z,2.42
2018-08-11T09:20:28.065Z,2.85
2018-08-11T09:22:57.443Z,3.20
2018-08-11T09:25:26.274Z,2.77
2018-08-11T09:27:55.092Z,2.72
2018-08-11T09:30:23.954Z,2.77
2018-08-11T09:32:52.824Z,3.25
2018-08-11T09:35:21.617Z,2.92
2018-08-11T09:37:50.402Z,1.50
2018-08-11T09:40:19.184Z,2.12
2018-08-11T09:42:47.995Z,2.05
2018-08-11T09:45:16.816Z,2.90
2018-08-11T09:47:45.748Z,2.50
2018-08-11T09:50:14.665Z,1.75
2018-08-11T09:52:43.600Z,2.25
2018-08-11T09:55:12.878Z,1.95
2018-08-11T09:57:41.893Z,2.60
2018-08-11T10:00:11.175Z,1.67
2018-08-11T10:02:40.002Z,2.08
2018-08-11T10:05:10.011Z,1.87
2018-08-11T10:07:45.840Z,6.95
2018-08-11T10:10:14.800Z,3.52
2018-08-11T10:12:43.619Z,1.75
2018-08-11T10:15:21.879Z,3.05
2018-08-11T10:20:27.866Z,6.50
2018-08-11T10:22:57.111Z,2.22
2018-08-11T10:25:26.050Z,5.47
2018-08-11T10:27:54.895Z,4.40
2018-08-11T10:30:23.681Z,2.80
2018-08-11T10:32:52.458Z,1.60
2018-08-11T10:35:30.160Z,2.58
2018-08-11T10:37:59.148Z,1.92
2018-08-11T10:40:28.138Z,2.40
2018-08-11T10:43:13.286Z,3.47
2018-08-11T10:45:49.964Z,2.45
2018-08-11T10:48:18.906Z,2.85
2018-08-11T10:51:00.084Z,1.30
2018-08-11T10:53:29.162Z,2.22
2018-08-11T10:55:58.040Z,3.42
2018-08-11T10:58:44.334Z,8.08
2018-08-11T11:01:14.129Z,4.37
2018-08-11T11:03:42.992Z,4.87
2018-08-11T11:06:11.994Z,4.47
2018-08-11T11:08:41.085Z,2.90
2018-08-11T11:11:09.937Z,4.67
2018-08-11T11:13:38.731Z,4.72
2018-08-11T11:16:07.787Z,2.90
2018-08-11T11:18:36.719Z,6.50
2018-08-11T11:21:06.035Z,4.47
2018-08-11T11:23:34.974Z,4.75
2018-08-11T11:26:03.923Z,3.22
2018-08-11T11:28:32.709Z,2.35
2018-08-11T11:31:01.524Z,2.00
2018-08-11T11:33:30.434Z,3.67
2018-08-11T11:35:59.319Z,2.27
2018-08-11T11:38:28.129Z,4.12
2018-08-11T11:40:56.934Z,3.25
2018-08-11T11:43:25.845Z,5.67
2018-08-11T11:45:56.621Z,10.32
2018-08-11T11:48:25.524Z,29.35
2018-08-11T11:50:54.403Z,11.50
2018-08-11T11:53:23.279Z,13.72
2018-08-11T11:55:52.182Z,17.52
2018-08-11T11:58:20.995Z,18.17
2018-08-11T12:00:49.858Z,16.15
2018-08-11T12:03:18.716Z,14.70
2018-08-11T12:05:47.577Z,17.67
2018-08-11T12:08:16.444Z,18.80
2018-08-11T12:10:45.295Z,20.97
2018-08-11T12:13:14.140Z,19.12
2018-08-11T12:15:43.036Z,15.65
2018-08-11T12:18:11.970Z,16.57
2018-08-11T12:20:40.869Z,14.07
2018-08-11T12:23:09.838Z,16.82
2018-08-11T12:25:38.636Z,12.43
2018-08-11T12:28:07.576Z,17.90
2018-08-11T12:30:36.412Z,16.07
2018-08-11T12:33:05.273Z,14.03
2018-08-11T12:35:34.161Z,13.22
2018-08-11T12:38:03.087Z,25.82
2018-08-11T12:40:31.780Z,18.35
2018-08-11T12:43:00.692Z,16.80
2018-08-11T12:45:30.476Z,14.18
2018-08-11T12:47:59.326Z,16.25
2018-08-11T12:50:28.110Z,18.07
2018-08-11T12:52:56.932Z,12.55
2018-08-11T12:55:25.711Z,14.33
2018-08-11T12:57:54.575Z,14.45
2018-08-11T13:00:23.591Z,11.68
2018-08-11T13:02:52.454Z,12.43
2018-08-11T13:05:21.200Z,12.70
2018-08-11T13:07:50.042Z,11.97
2018-08-11T13:10:18.964Z,15.80
2018-08-11T13:12:47.801Z,12.23
2018-08-11T13:15:16.562Z,8.38
2018-08-11T13:17:45.374Z,10.68
2018-08-11T13:20:14.149Z,9.25
2018-08-11T13:22:43.179Z,8.68
2018-08-11T13:25:12.019Z,7.62
2018-08-11T13:27:40.873Z,10.72
2018-08-11T13:30:09.740Z,5.83
2018-08-11T13:32:38.605Z,9.38
2018-08-11T13:35:07.416Z,11.00
2018-08-11T13:37:36.275Z,9.33
2018-08-11T13:40:05.919Z,8.30
2018-08-11T13:42:34.778Z,7.20
2018-08-11T13:45:03.663Z,9.55
2018-08-11T13:47:32.427Z,9.20
2018-08-11T13:50:01.264Z,10.18
2018-08-11T13:52:30.185Z,6.65
2018-08-11T13:54:59.067Z,8.68
2018-08-11T13:57:27.902Z,7.83
2018-08-11T13:59:56.893Z,7.42
2018-08-11T14:02:25.676Z,6.37
2018-08-11T14:04:54.551Z,9.98
2018-08-11T14:07:23.509Z,4.90
2018-08-11T14:09:52.338Z,8.88
2018-08-11T14:12:21.217Z,6.80
2018-08-11T14:14:50.020Z,6.95
2018-08-11T14:17:18.928Z,6.40
2018-08-11T14:19:47.758Z,5.15
2018-08-11T14:22:16.578Z,6.35
2018-08-11T14:24:45.581Z,7.25
2018-08-11T14:27:14.375Z,6.17
2018-08-11T14:29:43.294Z,6.17
2018-08-11T14:32:12.145Z,6.55
2018-08-11T14:34:41.003Z,6.08
2018-08-11T14:37:09.762Z,6.40
2018-08-11T14:39:38.657Z,5.65
2018-08-11T14:42:07.616Z,9.73
2018-08-11T14:44:36.737Z,8.10
2018-08-11T14:47:06.515Z,5.20
2018-08-11T14:49:35.339Z,4.87
2018-08-11T14:52:04.444Z,5.37
2018-08-11T14:54:34.247Z,5.62
2018-08-11T14:57:03.115Z,4.65
2018-08-11T14:59:31.978Z,5.40
2018-08-11T15:02:00.868Z,5.67
2018-08-11T15:04:29.742Z,7.15
2018-08-11T15:06:58.543Z,4.47
2018-08-11T15:09:27.334Z,8.83
2018-08-11T15:11:56.234Z,2.95
2018-08-11T15:14:25.018Z,4.00
2018-08-11T15:16:53.869Z,3.83
2018-08-11T15:19:22.703Z,3.75
2018-08-11T15:21:51.582Z,4.37
2018-08-11T15:24:20.450Z,5.65
2018-08-11T15:26:49.283Z,3.10
2018-08-11T15:29:18.053Z,4.70
2018-08-11T15:31:46.941Z,3.87
2018-08-11T15:34:15.745Z,3.62
2018-08-11T15:36:44.529Z,4.87
2018-08-11T15:39:14.269Z,3.60
2018-08-11T15:41:43.363Z,2.52
2018-08-11T15:44:12.271Z,4.10
2018-08-11T15:46:41.087Z,4.67
2018-08-11T15:49:09.851Z,3.67
2018-08-11T15:51:38.709Z,3.22
2018-08-11T15:54:07.812Z,5.17
2018-08-11T15:56:36.641Z,4.25
2018-08-11T15:59:05.533Z,3.83
2018-08-11T16:01:34.373Z,2.77
2018-08-11T16:04:03.297Z,3.70
2018-08-11T16:06:32.115Z,3.65
2018-08-11T16:09:00.979Z,2.22
2018-08-11T16:11:29.834Z,2.40
2018-08-11T16:13:58.702Z,3.00
2018-08-11T16:16:27.509Z,2.70
2018-08-11T16:18:56.309Z,3.70
2018-08-11T16:21:25.231Z,3.20
2018-08-11T16:23:54.089Z,1.70
2018-08-11T16:26:22.919Z,2.83
2018-08-11T16:28:51.997Z,1.65
2018-08-11T16:31:20.836Z,2.10
2018-08-11T16:33:49.646Z,3.47
2018-08-11T16:36:18.416Z,3.12
2018-08-11T16:38:47.303Z,2.52
2018-08-11T16:41:16.175Z,2.45
2018-08-11T16:43:44.936Z,4.30
2018-08-11T16:46:13.830Z,1.92
2018-08-11T16:48:42.652Z,3.87
2018-08-11T16:51:11.517Z,2.40
2018-08-11T16:53:40.420Z,2.65
2018-08-11T16:56:09.258Z,2.17
2018-08-11T16:58:38.031Z,1.72
2018-08-11T17:01:06.819Z,3.47
2018-08-11T17:03:35.700Z,1.42
2018-08-11T17:06:04.548Z,2.05
2018-08-11T17:08:33.389Z,2.98
2018-08-11T17:11:02.191Z,2.17
2018-08-11T17:13:31.056Z,2.58
2018-08-11T17:15:59.845Z,2.52
2018-08-11T17:18:28.685Z,3.40
2018-08-11T17:20:57.563Z,2.42
2018-08-11T17:23:26.353Z,3.50
2018-08-11T17:25:55.216Z,3.42
2018-08-11T17:28:24.222Z,3.92
2018-08-11T17:30:53.088Z,3.27
2018-08-11T17:33:21.922Z,1.92
2018-08-11T17:35:50.823Z,3.67
2018-08-11T17:38:19.685Z,1.67
2018-08-11T17:40:48.553Z,1.82
2018-08-11T17:43:17.378Z,1.98
2018-08-11T17:45:46.167Z,2.75
2018-08-11T17:48:15.037Z,2.35
2018-08-11T17:50:43.902Z,2.40
2018-08-11T17:53:12.859Z,2.08
2018-08-11T17:55:41.770Z,2.75
2018-08-11T17:58:10.614Z,2.37
2018-08-11T18:00:39.566Z,2.27
2018-08-11T18:03:08.376Z,2.90
2018-08-11T18:05:37.205Z,1.35
2018-08-11T18:08:06.069Z,2.67
2018-08-11T18:10:34.915Z,1.32
2018-08-11T18:13:03.854Z,2.60
2018-08-11T18:15:32.898Z,2.05
2018-08-11T18:18:01.742Z,1.00
2018-08-11T18:20:30.648Z,1.25
2018-08-11T18:22:59.696Z,1.47
2018-08-11T18:25:28.643Z,1.95
2018-08-11T18:27:57.569Z,1.65
2018-08-11T18:30:26.586Z,3.02
2018-08-11T18:32:55.573Z,1.67
2018-08-11T18:35:24.535Z,0.70
2018-08-11T18:37:53.424Z,2.08
2018-08-11T18:40:22.357Z,1.75
2018-08-11T18:42:51.289Z,2.70
2018-08-11T18:45:20.261Z,1.50
2018-08-11T18:47:49.158Z,2.35
2018-08-11T18:50:18.182Z,1.62
2018-08-11T18:52:47.146Z,2.30
2018-08-11T18:55:16.059Z,1.50
2018-08-11T18:57:44.957Z,2.30
2018-08-11T19:00:16.872Z,1.65
2018-08-11T19:02:46.206Z,1.65
2018-08-11T19:05:15.146Z,2.42
2018-08-11T19:07:44.039Z,2.67
2018-08-11T19:10:13.976Z,2.67
2018-08-11T19:12:42.882Z,1.32
2018-08-11T19:15:13.498Z,1.67
2018-08-11T19:17:47.401Z,2.35
2018-08-11T19:20:16.352Z,1.25
2018-08-11T19:22:45.309Z,2.50
2018-08-11T19:25:14.313Z,1.40
2018-08-11T19:27:43.901Z,1.30
2018-08-11T19:30:12.984Z,1.35
2018-08-11T19:32:41.944Z,1.82
2018-08-11T19:35:10.885Z,1.82
2018-08-11T19:37:39.806Z,2.42
2018-08-11T19:40:09.639Z,1.65
2018-08-11T19:42:38.598Z,1.35
2018-08-11T19:45:09.692Z,1.45
2018-08-11T19:47:38.618Z,1.27
2018-08-11T19:50:08.512Z,1.75
2018-08-11T19:52:37.485Z,2.70
2018-08-11T19:55:07.242Z,2.42
2018-08-11T19:57:36.213Z,1.75
2018-08-11T20:00:08.088Z,1.52
2018-08-11T20:02:37.016Z,2.02
2018-08-11T20:05:06.598Z,2.15
2018-08-11T20:07:35.578Z,1.95
2018-08-11T20:10:06.117Z,2.85
2018-08-11T20:12:35.025Z,2.47
2018-08-11T20:15:04.022Z,2.47
2018-08-11T20:17:32.968Z,3.47
2018-08-11T20:20:01.844Z,2.95
2018-08-11T20:22:30.830Z,2.85
2018-08-11T20:24:59.779Z,3.60
2018-08-11T20:27:28.564Z,3.37
2018-08-11T20:29:57.477Z,2.98
2018-08-11T20:32:26.817Z,2.50
2018-08-11T20:34:55.741Z,2.85
2018-08-11T20:37:24.745Z,2.65
2018-08-11T20:39:53.564Z,3.50
2018-08-11T20:42:22.414Z,3.17
2018-08-11T20:44:51.290Z,2.30
2018-08-11T20:47:20.221Z,2.37
2018-08-11T20:49:49.110Z,4.00
2018-08-11T20:52:17.979Z,3.02
2018-08-11T20:54:47.182Z,3.30
2018-08-11T20:57:16.071Z,3.42
2018-08-11T20:59:45.070Z,2.75
2018-08-11T21:02:14.000Z,3.42
2018-08-11T21:04:42.910Z,2.10
2018-08-11T21:07:11.724Z,2.33
2018-08-11T21:09:40.609Z,2.35
2018-08-11T21:12:09.581Z,2.90
2018-08-11T21:14:38.490Z,2.75
2018-08-11T21:17:07.711Z,2.77
2018-08-11T21:19:36.539Z,2.02
2018-08-11T21:22:05.385Z,2.92
2018-08-11T21:24:34.252Z,2.80
2018-08-11T21:27:03.115Z,2.02
2018-08-11T21:29:31.953Z,2.42
2018-08-11T21:32:00.752Z,3.17
2018-08-11T21:34:29.681Z,2.12
2018-08-11T21:36:58.568Z,2.83
2018-08-11T21:39:27.334Z,2.00
2018-08-11T21:41:56.114Z,2.30
2018-08-11T21:44:24.943Z,1.60
2018-08-11T21:46:53.740Z,2.55
2018-08-11T21:49:22.632Z,2.20
2018-08-11T21:51:51.591Z,2.58
2018-08-11T21:54:20.509Z,1.80
2018-08-11T21:56:49.327Z,2.22
2018-08-11T21:59:18.244Z,2.27
2018-08-11T22:01:47.127Z,2.02
2018-08-11T22:04:16.055Z,2.77
2018-08-11T22:06:44.904Z,8.60
2018-08-11T22:09:14.863Z,3.62
2018-08-11T22:11:43.861Z,6.50
2018-08-11T22:14:12.761Z,6.47
2018-08-11T22:16:41.532Z,4.55
2018-08-11T22:19:10.405Z,3.15
2018-08-11T22:21:39.245Z,4.25
2018-08-11T22:24:08.080Z,5.92
2018-08-11T22:26:37.030Z,7.22
2018-08-11T22:29:05.878Z,2.33
2018-08-11T22:31:34.870Z,5.85
2018-08-11T22:34:03.802Z,3.62
2018-08-11T22:36:32.627Z,3.70
2018-08-11T22:39:01.500Z,3.77
2018-08-11T22:41:30.486Z,2.25
2018-08-11T22:43:59.348Z,4.55
2018-08-11T22:46:28.163Z,3.35
2018-08-11T22:48:57.081Z,4.75
2018-08-11T22:51:26.102Z,3.42
